createdAt,value
2023-03-23T00:01:20.453Z,12.10
2023-03-23T00:03:52.303Z,14.63
2023-03-23T00:06:22.075Z,14.20
2023-03-23T00:08:50.785Z,16.83
2023-03-23T00:11:30.315Z,15.00
2023-03-23T00:14:02.049Z,18.10
2023-03-23T00:16:32.963Z,16.20
2023-03-23T00:19:05.651Z,18.27
2023-03-23T00:21:37.648Z,23.60
2023-03-23T00:24:10.575Z,17.57
2023-03-23T00:26:48.260Z,18.27
2023-03-23T00:29:22.231Z,22.67
2023-03-23T00:31:50.089Z,27.90
2023-03-23T00:34:22.603Z,17.40
2023-03-23T00:36:57.924Z,20.23
2023-03-23T00:39:28.853Z,21.97
2023-03-23T00:42:01.718Z,25.60
2023-03-23T00:44:34.573Z,23.70
2023-03-23T00:47:01.155Z,24.60
2023-03-23T00:49:28.536Z,23.57
2023-03-23T00:51:56.719Z,24.73
2023-03-23T00:54:25.109Z,23.27
2023-03-23T00:56:52.029Z,23.57
2023-03-23T00:59:19.217Z,20.57
2023-03-23T01:01:46.465Z,19.63
2023-03-23T01:04:13.672Z,22.57
2023-03-23T01:06:43.581Z,22.80
2023-03-23T01:09:15.789Z,23.23
2023-03-23T01:11:43.323Z,23.80
2023-03-23T01:14:13.030Z,25.87
2023-03-23T01:16:39.655Z,24.07
2023-03-23T01:19:06.308Z,22.80
2023-03-23T01:21:33.202Z,24.50
2023-03-23T01:23:59.885Z,24.60
2023-03-23T01:26:29.020Z,24.23
2023-03-23T01:28:56.058Z,22.57
2023-03-23T01:31:26.192Z,24.13
2023-03-23T01:33:53.658Z,21.27
2023-03-23T01:36:33.660Z,24.43
2023-03-23T01:39:05.749Z,27.67
2023-03-23T01:41:33.811Z,26.40
2023-03-23T01:44:08.218Z,27.63
2023-03-23T01:46:36.915Z,26.30
2023-03-23T01:49:14.902Z,34.80
2023-03-23T01:51:48.158Z,27.90
2023-03-23T01:54:21.326Z,33.93
2023-03-23T01:57:05.045Z,30.67
2023-03-23T01:59:34.653Z,29.37
2023-03-23T02:02:02.052Z,29.23
2023-03-23T02:04:31.144Z,29.93
2023-03-23T02:06:59.136Z,32.40
2023-03-23T02:09:26.721Z,26.60
2023-03-23T02:11:56.016Z,32.90
2023-03-23T02:14:25.823Z,30.93
2023-03-23T02:17:14.058Z,30.67
2023-03-23T02:20:08.108Z,30.40
2023-03-23T02:23:07.981Z,32.17
2023-03-23T02:26:00.739Z,32.37
2023-03-23T02:28:37.604Z,29.20
2023-03-23T02:31:22.806Z,28.47
2023-03-23T02:34:18.645Z,30.47
2023-03-23T02:36:54.021Z,29.70
2023-03-23T02:39:46.999Z,29.20
2023-03-23T02:42:18.821Z,25.73
2023-03-23T02:44:47.951Z,30.60
2023-03-23T02:47:20.742Z,26.87
2023-03-23T02:49:52.507Z,27.87
2023-03-23T02:52:23.031Z,27.40
2023-03-23T02:54:52.153Z,25.83
2023-03-23T02:57:19.013Z,25.80
2023-03-23T03:00:11.245Z,25.27
2023-03-23T03:02:42.090Z,27.63
2023-03-23T03:05:33.054Z,22.47
2023-03-23T03:08:05.550Z,30.07
2023-03-23T03:10:48.481Z,23.50
2023-03-23T03:13:35.213Z,22.80
2023-03-23T03:16:07.173Z,24.80
2023-03-23T03:19:16.682Z,27.10
2023-03-23T03:21:48.149Z,23.57
2023-03-23T03:24:18.723Z,24.63
2023-03-23T03:26:48.549Z,26.80
2023-03-23T03:29:24.117Z,24.57
2023-03-23T03:31:56.388Z,26.07
2023-03-23T03:34:25.265Z,25.37
2023-03-23T03:36:56.085Z,24.93
2023-03-23T03:39:22.770Z,20.67
2023-03-23T03:41:49.777Z,25.60
2023-03-23T03:44:16.724Z,28.00
2023-03-23T03:46:43.374Z,27.07
2023-03-23T03:49:13.480Z,27.10
2023-03-23T03:51:41.596Z,21.90
2023-03-23T03:54:08.370Z,26.77
2023-03-23T03:56:41.357Z,28.87
2023-03-23T03:59:21.764Z,24.93
2023-03-23T04:01:55.744Z,22.83
2023-03-23T04:04:23.331Z,23.00
2023-03-23T04:06:50.192Z,21.17
2023-03-23T04:09:17.106Z,24.90
2023-03-23T04:11:44.702Z,22.13
2023-03-23T04:14:11.526Z,27.43
2023-03-23T04:16:38.645Z,22.73
2023-03-23T04:19:05.297Z,23.83
2023-03-23T04:21:31.928Z,18.53
2023-03-23T04:24:02.207Z,20.93
2023-03-23T04:26:33.720Z,18.07
2023-03-23T04:29:00.270Z,18.40
2023-03-23T04:31:27.133Z,19.20
2023-03-23T04:33:58.705Z,17.50
2023-03-23T04:36:27.147Z,17.83
2023-03-23T04:39:14.559Z,21.00
2023-03-23T04:41:41.479Z,17.57
2023-03-23T04:44:08.375Z,19.27
2023-03-23T04:46:35.093Z,16.60
2023-03-23T04:49:01.971Z,15.73
2023-03-23T04:51:32.435Z,14.93
2023-03-23T04:53:59.072Z,16.97
2023-03-23T04:56:25.656Z,18.67
2023-03-23T04:58:52.643Z,14.60
2023-03-23T05:01:19.256Z,18.33
2023-03-23T05:03:45.999Z,17.43
2023-03-23T05:06:12.546Z,15.17
2023-03-23T05:08:40.093Z,19.80
2023-03-23T05:11:07.209Z,15.00
2023-03-23T05:13:33.981Z,16.57
2023-03-23T05:16:05.852Z,16.83
2023-03-23T05:18:33.784Z,17.70
2023-03-23T05:21:02.134Z,15.40
2023-03-23T05:23:28.913Z,16.00
2023-03-23T05:25:57.193Z,17.07
2023-03-23T05:28:23.933Z,13.03
2023-03-23T05:30:51.692Z,12.57
2023-03-23T05:33:18.296Z,14.90
2023-03-23T05:35:48.207Z,13.30
2023-03-23T05:38:15.801Z,13.10
2023-03-23T05:40:43.672Z,13.73
2023-03-23T05:43:10.948Z,14.63
2023-03-23T05:45:37.502Z,13.40
2023-03-23T05:48:04.175Z,11.97
2023-03-23T05:50:30.771Z,14.50
2023-03-23T05:52:57.431Z,11.23
2023-03-23T05:55:24.316Z,11.73
2023-03-23T05:57:50.834Z,9.90
2023-03-23T06:00:20.926Z,12.77
2023-03-23T06:02:49.358Z,13.20
2023-03-23T06:05:17.015Z,10.47
2023-03-23T06:07:44.137Z,12.03
2023-03-23T06:10:11.572Z,12.70
2023-03-23T06:12:40.496Z,13.90
2023-03-23T06:15:08.962Z,9.73
2023-03-23T06:17:37.400Z,11.80
2023-03-23T06:20:09.953Z,12.73
2023-03-23T06:22:40.823Z,12.20
2023-03-23T06:25:09.410Z,10.70
2023-03-23T06:27:36.466Z,8.20
2023-03-23T06:30:05.098Z,22.27
2023-03-23T06:32:33.455Z,9.23
2023-03-23T06:35:00.306Z,10.20
2023-03-23T06:37:26.840Z,10.57
2023-03-23T06:39:53.404Z,11.50
2023-03-23T06:42:20.063Z,11.30
2023-03-23T06:44:46.887Z,8.93
2023-03-23T06:47:13.670Z,10.57
2023-03-23T06:49:40.287Z,10.90
2023-03-23T06:52:07.427Z,10.60
2023-03-23T06:54:34.060Z,8.00
2023-03-23T06:57:00.654Z,10.03
2023-03-23T06:59:27.500Z,12.20
2023-03-23T07:01:54.500Z,8.13
2023-03-23T07:04:21.056Z,8.40
2023-03-23T07:06:48.309Z,6.83
2023-03-23T07:09:15.056Z,9.17
2023-03-23T07:11:42.564Z,8.37
2023-03-23T07:14:09.320Z,9.47
2023-03-23T07:16:38.720Z,9.27
2023-03-23T07:19:05.382Z,9.37
2023-03-23T07:21:32.487Z,8.13
2023-03-23T07:23:58.999Z,8.93
2023-03-23T07:26:25.623Z,9.90
2023-03-23T07:28:52.528Z,8.53
2023-03-23T07:31:19.142Z,8.43
2023-03-23T07:33:45.744Z,7.70
2023-03-23T07:36:12.549Z,9.57
2023-03-23T07:38:39.743Z,9.57
2023-03-23T07:41:07.370Z,6.37
2023-03-23T07:43:33.978Z,11.30
2023-03-23T07:46:00.697Z,7.03
2023-03-23T07:48:27.911Z,7.33
2023-03-23T07:50:54.584Z,5.57
2023-03-23T07:53:22.675Z,7.57
2023-03-23T07:55:50.006Z,9.40
2023-03-23T07:58:20.201Z,8.30
2023-03-23T08:00:51.052Z,8.33
2023-03-23T08:03:17.722Z,7.37
2023-03-23T08:05:44.622Z,8.23
2023-03-23T08:08:11.357Z,6.90
2023-03-23T08:10:38.205Z,6.80
2023-03-23T08:13:05.235Z,5.40
2023-03-23T08:15:32.364Z,9.77
2023-03-23T08:17:59.454Z,9.77
2023-03-23T08:20:26.494Z,9.00
2023-03-23T08:22:56.379Z,9.90
2023-03-23T08:25:26.015Z,11.37
2023-03-23T08:27:53.794Z,7.93
2023-03-23T08:30:23.697Z,9.17
2023-03-23T08:32:51.801Z,13.90
2023-03-23T08:35:19.658Z,13.07
2023-03-23T08:37:47.056Z,9.47
2023-03-23T08:40:17.763Z,10.73
2023-03-23T08:42:47.337Z,11.83
2023-03-23T08:45:22.145Z,8.67
2023-03-23T08:47:52.934Z,9.20
2023-03-23T08:50:24.047Z,10.10
2023-03-23T08:52:51.232Z,7.27
2023-03-23T08:55:20.363Z,8.67
2023-03-23T08:57:48.218Z,4.93
2023-03-23T09:00:20.667Z,12.63
2023-03-23T09:02:49.599Z,14.90
2023-03-23T09:05:18.132Z,9.40
2023-03-23T09:07:48.759Z,7.07
2023-03-23T09:10:19.053Z,12.73
2023-03-23T09:12:47.561Z,19.23
2023-03-23T09:15:18.706Z,8.67
2023-03-23T09:17:50.913Z,8.87
2023-03-23T09:20:21.623Z,6.40
2023-03-23T09:22:51.400Z,9.47
2023-03-23T09:25:26.838Z,10.30
2023-03-23T09:27:57.403Z,5.97
2023-03-23T09:30:30.022Z,7.27
2023-03-23T09:32:57.418Z,7.03
2023-03-23T09:35:24.646Z,6.73
2023-03-23T09:37:52.850Z,8.70
2023-03-23T09:40:25.624Z,11.67
2023-03-23T09:43:31.160Z,7.57
2023-03-23T09:46:09.866Z,7.97
2023-03-23T09:48:47.418Z,10.47
2023-03-23T09:51:32.146Z,12.90
2023-03-23T09:54:04.396Z,9.87
2023-03-23T09:56:33.802Z,11.87
2023-03-23T09:59:20.831Z,14.37
2023-03-23T10:01:53.487Z,13.33
2023-03-23T10:04:23.153Z,10.87
2023-03-23T10:06:49.739Z,12.10
2023-03-23T10:09:19.929Z,13.33
2023-03-23T10:12:28.352Z,10.70
2023-03-23T10:15:13.796Z,8.63
2023-03-23T10:18:16.347Z,10.47
2023-03-23T10:20:57.879Z,8.20
2023-03-23T10:23:49.607Z,9.77
2023-03-23T10:26:16.215Z,7.87
2023-03-23T10:28:45.764Z,9.53
2023-03-23T10:31:24.264Z,10.50
2023-03-23T10:33:55.781Z,12.50
2023-03-23T10:36:30.882Z,10.53
2023-03-23T10:39:13.859Z,7.83
2023-03-23T10:41:40.445Z,14.07
2023-03-23T10:44:27.079Z,10.20
2023-03-23T10:47:07.423Z,14.07
2023-03-23T10:49:54.944Z,17.30
2023-03-23T10:52:43.224Z,12.27
2023-03-23T10:55:24.292Z,12.07
2023-03-23T10:58:10.864Z,15.90
2023-03-23T11:00:48.637Z,14.20
2023-03-23T11:03:15.874Z,17.87
2023-03-23T11:05:44.941Z,8.73
2023-03-23T11:08:21.188Z,11.53
2023-03-23T11:10:57.079Z,10.97
2023-03-23T11:13:32.424Z,14.03
2023-03-23T11:15:59.849Z,13.83
2023-03-23T11:18:41.530Z,14.90
2023-03-23T11:21:12.761Z,15.30
2023-03-23T11:23:50.070Z,14.23
2023-03-23T11:26:24.736Z,11.67
2023-03-23T11:29:00.280Z,13.07
2023-03-23T11:31:39.756Z,9.43
2023-03-23T11:34:19.519Z,12.93
2023-03-23T11:36:58.995Z,19.07
2023-03-23T11:39:29.525Z,12.03
2023-03-23T11:42:09.031Z,11.47
2023-03-23T11:44:42.897Z,13.00
2023-03-23T11:47:21.614Z,13.27
2023-03-23T11:50:05.464Z,17.43
2023-03-23T11:52:47.863Z,14.27
2023-03-23T11:55:20.619Z,16.70
2023-03-23T11:57:47.485Z,13.30
2023-03-23T12:00:17.395Z,11.07
2023-03-23T12:03:08.604Z,11.93
2023-03-23T12:05:49.602Z,12.17
2023-03-23T12:08:36.521Z,10.73
2023-03-23T12:11:37.466Z,14.20
2023-03-23T12:14:30.103Z,15.70
2023-03-23T12:17:30.799Z,12.27
2023-03-23T12:20:27.012Z,12.50
2023-03-23T12:22:58.568Z,15.47
2023-03-23T12:25:47.801Z,19.00
2023-03-23T12:28:17.253Z,11.60
2023-03-23T12:30:49.764Z,14.07
2023-03-23T12:33:46.894Z,15.27
2023-03-23T12:36:14.006Z,17.93
2023-03-23T12:39:20.408Z,19.87
2023-03-23T12:42:17.269Z,13.13
2023-03-23T12:45:04.175Z,14.10
2023-03-23T12:47:51.791Z,16.47
2023-03-23T12:50:28.793Z,13.63
2023-03-23T12:53:05.799Z,16.07
2023-03-23T12:55:46.183Z,11.43
2023-03-23T12:58:21.755Z,11.07
2023-03-23T13:01:00.230Z,14.03
2023-03-23T13:03:39.859Z,15.37
2023-03-23T13:06:32.405Z,15.00
2023-03-23T13:09:13.297Z,13.17
2023-03-23T13:11:44.000Z,14.93
2023-03-23T13:14:27.420Z,12.50
2023-03-23T13:17:07.181Z,11.87
2023-03-23T13:19:56.190Z,13.20
2023-03-23T13:22:32.751Z,11.17
2023-03-23T13:25:05.035Z,12.47
2023-03-23T13:27:31.735Z,12.10
2023-03-23T13:29:59.499Z,11.60
2023-03-23T13:32:43.631Z,7.80
2023-03-23T13:35:16.139Z,10.53
2023-03-23T13:37:48.249Z,10.57
2023-03-23T13:40:29.003Z,12.07
2023-03-23T13:43:01.236Z,8.37
2023-03-23T13:45:31.534Z,9.83
2023-03-23T13:48:23.366Z,5.73
2023-03-23T13:50:58.747Z,9.50
2023-03-23T13:53:33.500Z,8.20
2023-03-23T13:56:28.292Z,7.77
2023-03-23T13:59:17.952Z,8.07
2023-03-23T14:01:44.797Z,10.43
2023-03-23T14:04:16.311Z,8.47
2023-03-23T14:06:44.748Z,8.00
2023-03-23T14:09:23.798Z,5.63
2023-03-23T14:11:59.787Z,3.90
2023-03-23T14:14:34.331Z,6.47
2023-03-23T14:17:29.249Z,11.10
2023-03-23T14:20:00.227Z,7.33
2023-03-23T14:22:29.352Z,4.30
2023-03-23T14:25:16.337Z,5.80
2023-03-23T14:27:44.167Z,7.90
2023-03-23T14:30:37.495Z,8.03
2023-03-23T14:33:09.722Z,5.87
2023-03-23T14:35:38.869Z,13.23
2023-03-23T14:38:06.082Z,9.23
2023-03-23T14:40:32.956Z,6.73
2023-03-23T14:43:00.412Z,7.80
2023-03-23T14:45:27.361Z,6.10
2023-03-23T14:48:03.295Z,5.37
2023-03-23T14:50:40.615Z,6.70
2023-03-23T14:53:13.100Z,4.57
2023-03-23T14:55:44.197Z,4.03
2023-03-23T14:58:16.556Z,3.07
2023-03-23T15:00:52.697Z,5.50
2023-03-23T15:03:20.614Z,4.80
2023-03-23T15:05:55.312Z,4.57
2023-03-23T15:08:30.907Z,4.33
2023-03-23T15:11:12.550Z,3.83
2023-03-23T15:13:45.739Z,7.73
2023-03-23T15:16:28.026Z,5.20
2023-03-23T15:19:00.868Z,5.13
2023-03-23T15:21:32.780Z,6.00
2023-03-23T15:24:00.091Z,4.03
2023-03-23T15:26:42.182Z,6.63
2023-03-23T15:29:08.747Z,3.80
2023-03-23T15:31:41.030Z,5.93
2023-03-23T15:34:15.611Z,7.43
2023-03-23T15:36:42.549Z,9.07
2023-03-23T15:39:13.442Z,5.77
2023-03-23T15:41:50.002Z,4.90
2023-03-23T15:44:26.468Z,7.37
2023-03-23T15:47:07.228Z,5.10
2023-03-23T15:49:34.536Z,5.20
2023-03-23T15:52:01.221Z,4.73
2023-03-23T15:54:31.961Z,10.20
2023-03-23T15:56:58.652Z,6.03
2023-03-23T15:59:25.328Z,8.77
2023-03-23T16:01:52.147Z,3.70
2023-03-23T16:04:19.951Z,8.53
2023-03-23T16:06:46.842Z,9.07
2023-03-23T16:09:20.757Z,6.90
2023-03-23T16:11:47.350Z,7.67
2023-03-23T16:14:14.320Z,7.17
2023-03-23T16:16:50.497Z,5.03
2023-03-23T16:19:18.307Z,9.10
2023-03-23T16:21:45.117Z,8.30
2023-03-23T16:24:11.834Z,5.67
2023-03-23T16:26:40.906Z,9.80
2023-03-23T16:29:20.510Z,5.97
2023-03-23T16:32:00.035Z,10.03
2023-03-23T16:34:28.990Z,9.30
2023-03-23T16:36:56.551Z,8.17
2023-03-23T16:39:23.503Z,4.70
2023-03-23T16:41:50.093Z,7.03
2023-03-23T16:44:16.816Z,6.30
2023-03-23T16:46:43.519Z,10.43
2023-03-23T16:49:10.154Z,8.03
2023-03-23T16:51:36.853Z,8.40
2023-03-23T16:54:03.424Z,7.03
2023-03-23T16:56:30.079Z,9.33
2023-03-23T16:58:56.831Z,8.93
2023-03-23T17:01:23.534Z,8.87
2023-03-23T17:03:50.310Z,5.83
2023-03-23T17:06:17.017Z,9.37
2023-03-23T17:08:44.944Z,9.03
2023-03-23T17:11:12.022Z,8.73
2023-03-23T17:13:38.669Z,6.73
2023-03-23T17:16:06.333Z,5.93
2023-03-23T17:18:32.978Z,11.57
2023-03-23T17:20:59.636Z,44.77
2023-03-23T17:23:26.281Z,10.50
2023-03-23T17:25:53.999Z,11.43
2023-03-23T17:28:21.082Z,6.33
2023-03-23T17:30:47.989Z,8.50
2023-03-23T17:33:14.782Z,8.30
2023-03-23T17:35:42.118Z,7.13
2023-03-23T17:38:08.870Z,8.30
2023-03-23T17:40:35.467Z,8.83
2023-03-23T17:43:02.049Z,4.77
2023-03-23T17:45:28.834Z,6.33
2023-03-23T17:47:55.452Z,7.17
2023-03-23T17:50:22.259Z,10.10
2023-03-23T17:52:49.983Z,10.90
2023-03-23T17:55:16.923Z,9.93
2023-03-23T17:57:44.926Z,5.40
2023-03-23T18:00:13.161Z,11.03
2023-03-23T18:02:39.896Z,7.23
2023-03-23T18:05:09.427Z,7.00
2023-03-23T18:07:37.242Z,13.07
2023-03-23T18:10:11.832Z,12.40
2023-03-23T18:12:40.225Z,11.13
2023-03-23T18:15:07.537Z,11.40
2023-03-23T18:17:34.178Z,12.57
2023-03-23T18:20:00.805Z,9.43
2023-03-23T18:22:27.417Z,7.70
2023-03-23T18:24:54.501Z,11.13
2023-03-23T18:27:21.214Z,11.03
2023-03-23T18:29:47.892Z,10.83
2023-03-23T18:32:14.437Z,8.33
2023-03-23T18:34:41.976Z,7.93
2023-03-23T18:37:09.017Z,11.30
2023-03-23T18:39:35.633Z,11.57
2023-03-23T18:42:02.276Z,11.00
2023-03-23T18:44:29.097Z,9.97
2023-03-23T18:46:55.720Z,10.50
2023-03-23T18:49:22.745Z,10.80
2023-03-23T18:51:49.451Z,9.70
2023-03-23T18:54:17.707Z,6.77
2023-03-23T18:56:44.338Z,5.67
2023-03-23T18:59:11.152Z,10.30
2023-03-23T19:01:37.851Z,7.23
2023-03-23T19:04:06.346Z,9.20
2023-03-23T19:06:34.997Z,14.30
2023-03-23T19:09:02.030Z,13.53
2023-03-23T19:11:29.068Z,8.57
2023-03-23T19:14:02.238Z,12.23
2023-03-23T19:16:36.052Z,12.70
2023-03-23T19:19:03.850Z,11.43
2023-03-23T19:21:31.760Z,10.37
2023-03-23T19:23:59.373Z,12.47
2023-03-23T19:26:36.973Z,9.73
2023-03-23T19:31:35.570Z,7.47
2023-03-23T19:34:02.248Z,11.50
2023-03-23T19:36:28.901Z,6.67
2023-03-23T19:38:57.741Z,8.77
2023-03-23T19:41:29.575Z,5.93
2023-03-23T19:43:56.273Z,8.33
2023-03-23T19:46:23.818Z,10.03
2023-03-23T19:48:50.827Z,7.50
2023-03-23T19:51:19.550Z,9.93
2023-03-23T19:53:46.722Z,7.17
2023-03-23T19:56:15.797Z,9.50
2023-03-23T19:58:42.958Z,11.63
2023-03-23T20:01:09.925Z,8.57
2023-03-23T20:03:37.015Z,8.80
2023-03-23T20:06:08.847Z,8.83
2023-03-23T20:08:35.608Z,6.10
2023-03-23T20:11:08.463Z,11.37
2023-03-23T20:13:35.916Z,6.80
2023-03-23T20:16:02.626Z,9.80
2023-03-23T20:18:30.002Z,7.50
2023-03-23T20:21:08.060Z,8.07
2023-03-23T20:23:36.218Z,9.50
2023-03-23T20:26:06.838Z,7.03
2023-03-23T20:28:33.558Z,7.43
2023-03-23T20:31:16.707Z,10.97
2023-03-23T20:34:00.639Z,9.83
2023-03-23T20:36:40.564Z,9.23
2023-03-23T20:39:18.740Z,14.70
2023-03-23T20:41:47.673Z,7.10
2023-03-23T20:44:15.955Z,8.77
2023-03-23T20:46:47.375Z,8.83
2023-03-23T20:49:16.044Z,8.40
2023-03-23T20:51:43.824Z,9.77
2023-03-23T20:54:11.004Z,11.97
2023-03-23T20:56:40.540Z,12.97
2023-03-23T20:59:07.140Z,10.40
2023-03-23T21:01:34.638Z,10.73
2023-03-23T21:04:03.455Z,11.00
2023-03-23T21:06:31.118Z,10.97
2023-03-23T21:08:58.462Z,12.20
2023-03-23T21:11:27.252Z,9.87
2023-03-23T21:13:54.940Z,13.67
2023-03-23T21:16:23.799Z,11.67
2023-03-23T21:18:50.801Z,10.87
2023-03-23T21:21:18.602Z,11.07
2023-03-23T21:23:53.003Z,9.57
2023-03-23T21:26:26.593Z,11.63
2023-03-23T21:29:00.473Z,8.87
2023-03-23T21:31:33.279Z,12.67
2023-03-23T21:34:00.495Z,12.37
2023-03-23T21:36:28.094Z,10.53
2023-03-23T21:38:55.825Z,11.70
2023-03-23T21:41:23.364Z,11.63
2023-03-23T21:43:50.269Z,14.87
2023-03-23T21:46:19.993Z,16.40
2023-03-23T21:48:51.695Z,14.90
2023-03-23T21:51:24.211Z,14.60
2023-03-23T21:53:54.457Z,14.20
2023-03-23T21:56:23.023Z,13.93
2023-03-23T21:58:49.599Z,13.40
2023-03-23T22:01:17.786Z,12.60
2023-03-23T22:03:44.519Z,13.50
2023-03-23T22:06:15.167Z,14.07
2023-03-23T22:08:43.675Z,14.33
2023-03-23T22:11:19.855Z,19.97
2023-03-23T22:13:46.816Z,13.10
2023-03-23T22:16:17.867Z,17.83
2023-03-23T22:18:46.440Z,12.33
2023-03-23T22:21:13.828Z,16.77
2023-03-23T22:23:40.963Z,16.27
2023-03-23T22:26:08.689Z,17.80
2023-03-23T22:28:37.225Z,14.97
2023-03-23T22:31:25.695Z,16.80
2023-03-23T22:33:55.201Z,13.13
2023-03-23T22:36:24.387Z,14.83
2023-03-23T22:38:52.072Z,19.17
2023-03-23T22:41:25.347Z,14.43
2023-03-23T22:43:52.243Z,15.17
2023-03-23T22:46:19.355Z,16.07
2023-03-23T22:48:46.664Z,13.53
2023-03-23T22:51:15.781Z,26.03
2023-03-23T22:53:42.865Z,16.20
2023-03-23T22:56:10.056Z,15.33
2023-03-23T22:58:37.264Z,16.43
2023-03-23T23:01:07.536Z,17.53
2023-03-23T23:03:35.495Z,15.87
2023-03-23T23:06:02.610Z,13.10
2023-03-23T23:08:30.847Z,14.30
2023-03-23T23:10:59.077Z,14.10
2023-03-23T23:13:27.171Z,15.43
2023-03-23T23:15:56.609Z,13.07
2023-03-23T23:18:23.655Z,14.00
2023-03-23T23:20:52.290Z,16.70
2023-03-23T23:23:19.355Z,11.93
2023-03-23T23:25:46.470Z,16.97
2023-03-23T23:28:13.983Z,14.67
2023-03-23T23:30:41.141Z,15.23
2023-03-23T23:33:07.959Z,14.87
2023-03-23T23:35:37.151Z,13.70
2023-03-23T23:38:05.110Z,13.90
2023-03-23T23:40:33.227Z,13.73
2023-03-23T23:43:00.123Z,13.23
2023-03-23T23:45:26.797Z,11.50
2023-03-23T23:47:53.634Z,12.47
2023-03-23T23:50:20.435Z,15.47
2023-03-23T23:52:47.240Z,11.67
2023-03-23T23:55:16.011Z,12.67
2023-03-23T23:57:47.063Z,11.67
